Time,TemperatureF,DewpointF,PressureIn,WindDirection,WindDirectionDegrees,WindSpeedMPH,WindSpeedGustMPH,Humidity,HourlyPrecipIn,Conditions,Clouds,dailyrainin,SolarRadiationWatts/m^2,SoftwareType,DateUTC
2013-07-25 00:12:00,67.0,61.0,-100.00,WSW,246,2.0,4.0,81,0.00,,,0.00,1.000000,,2013-07-25 05:12:00,
2013-07-25 00:22:00,67.0,61.0,-100.00,WSW,246,2.0,4.0,81,0.00,,,0.00,1.000000,,2013-07-25 05:22:00,
2013-07-25 00:32:00,67.0,61.0,-100.00,WSW,246,2.0,4.0,81,0.00,,,0.00,1.000000,,2013-07-25 05:32:00,
2013-07-25 00:43:00,67.0,61.0,-100.00,WSW,246,2.0,4.0,81,0.00,,,0.00,1.000000,,2013-07-25 05:43:00,
2013-07-25 00:52:00,67.0,61.0,-100.00,WSW,246,2.0,4.0,81,0.00,,,0.00,1.000000,,2013-07-25 05:52:00,
2013-07-25 01:12:00,66.0,60.0,-100.00,WSW,245,3.0,5.0,81,0.00,,,0.00,1.000000,,2013-07-25 06:12:00,
2013-07-25 01:22:00,66.0,60.0,-100.00,WSW,245,3.0,5.0,81,0.00,,,0.00,1.000000,,2013-07-25 06:22:00,
2013-07-25 01:32:00,66.0,60.0,-100.00,WSW,245,3.0,5.0,81,0.00,,,0.00,1.000000,,2013-07-25 06:32:00,
2013-07-25 01:42:00,66.0,60.0,-100.00,WSW,245,3.0,5.0,81,0.00,,,0.00,1.000000,,2013-07-25 06:42:00,
2013-07-25 01:52:00,66.0,60.0,-100.00,WSW,245,3.0,5.0,81,0.00,,,0.00,1.000000,,2013-07-25 06:52:00,
2013-07-25 01:53:00,65.0,59.0,-100.00,WSW,248,4.0,6.0,80,0.00,,,0.00,1.000000,,2013-07-25 06:53:00,
2013-07-25 02:12:00,65.0,59.0,-100.00,WSW,248,4.0,6.0,80,0.00,,,0.00,1.000000,,2013-07-25 07:12:00,
2013-07-25 02:22:00,65.0,59.0,-100.00,WSW,248,4.0,6.0,80,0.00,,,0.00,1.000000,,2013-07-25 07:22:00,
2013-07-25 02:33:00,65.0,59.0,-100.00,WSW,248,4.0,6.0,80,0.00,,,0.00,1.000000,,2013-07-25 07:33:00,
2013-07-25 02:43:00,65.0,59.0,-100.00,WSW,248,4.0,6.0,80,0.00,,,0.00,1.000000,,2013-07-25 07:43:00,
2013-07-25 03:12:00,64.0,58.0,-100.00,SW,232,2.0,6.0,80,0.00,,,0.00,1.000000,,2013-07-25 08:12:00,
2013-07-25 03:22:00,64.0,58.0,-100.00,SW,232,2.0,6.0,80,0.00,,,0.00,1.000000,,2013-07-25 08:22:00,
2013-07-25 03:32:00,64.0,58.0,-100.00,SW,232,2.0,6.0,80,0.00,,,0.00,1.000000,,2013-07-25 08:32:00,
2013-07-25 03:44:00,64.0,58.0,-100.00,SW,232,2.0,6.0,80,0.00,,,0.00,1.000000,,2013-07-25 08:44:00,
2013-07-25 03:52:00,64.0,58.0,-100.00,SW,232,2.0,6.0,80,0.00,,,0.00,1.000000,,2013-07-25 08:52:00,
2013-07-25 04:12:00,62.0,58.0,-100.00,SSW,208,1.0,5.0,86,0.00,,,0.00,1.000000,,2013-07-25 09:12:00,
2013-07-25 04:22:00,62.0,58.0,-100.00,SSW,208,1.0,5.0,86,0.00,,,0.00,1.000000,,2013-07-25 09:22:00,
2013-07-25 04:33:00,62.0,58.0,-100.00,SSW,208,1.0,5.0,86,0.00,,,0.00,1.000000,,2013-07-25 09:33:00,
2013-07-25 04:43:00,62.0,58.0,-100.00,SSW,208,1.0,5.0,86,0.00,,,0.00,1.000000,,2013-07-25 09:43:00,
2013-07-25 04:52:00,62.0,58.0,-100.00,SSW,208,1.0,5.0,86,0.00,,,0.00,1.000000,,2013-07-25 09:52:00,
2013-07-25 04:53:00,60.0,57.0,-100.00,SW,224,2.0,3.0,89,0.00,,,0.00,1.000000,,2013-07-25 09:53:00,
2013-07-25 05:12:00,60.0,57.0,-100.00,SW,224,2.0,3.0,89,0.00,,,0.00,1.000000,,2013-07-25 10:12:00,
2013-07-25 05:22:00,60.0,57.0,-100.00,SW,224,2.0,3.0,89,0.00,,,0.00,1.000000,,2013-07-25 10:22:00,
2013-07-25 05:32:00,60.0,57.0,-100.00,SW,224,2.0,3.0,89,0.00,,,0.00,1.000000,,2013-07-25 10:32:00,
2013-07-25 05:42:00,60.0,57.0,-100.00,SW,224,2.0,3.0,89,0.00,,,0.00,1.000000,,2013-07-25 10:42:00,
2013-07-25 06:12:00,61.0,56.0,-100.00,SW,217,4.0,5.0,84,0.00,,,0.00,1.000000,,2013-07-25 11:12:00,
2013-07-25 06:22:00,61.0,56.0,-100.00,SW,217,4.0,5.0,84,0.00,,,0.00,1.000000,,2013-07-25 11:22:00,
2013-07-25 06:32:00,61.0,56.0,-100.00,SW,217,4.0,5.0,84,0.00,,,0.00,1.000000,,2013-07-25 11:32:00,
2013-07-25 06:43:00,61.0,56.0,-100.00,SW,217,4.0,5.0,84,0.00,,,0.00,1.000000,,2013-07-25 11:43:00,
2013-07-25 06:52:00,61.0,56.0,-100.00,SW,217,4.0,5.0,84,0.00,,,0.00,1.000000,,2013-07-25 11:52:00,
2013-07-25 06:53:00,62.0,57.0,-100.00,SSW,203,3.0,5.0,84,0.00,,,0.00,29.000000,,2013-07-25 11:53:00,
2013-07-25 07:12:00,62.0,57.0,-100.00,SSW,203,3.0,5.0,84,0.00,,,0.00,29.000000,,2013-07-25 12:12:00,
2013-07-25 07:22:00,62.0,57.0,-100.00,SSW,203,3.0,5.0,84,0.00,,,0.00,29.000000,,2013-07-25 12:22:00,
2013-07-25 07:32:00,62.0,57.0,-100.00,SSW,203,3.0,5.0,84,0.00,,,0.00,29.000000,,2013-07-25 12:32:00,
2013-07-25 07:45:00,62.0,57.0,-100.00,SSW,203,3.0,5.0,84,0.00,,,0.00,29.000000,,2013-07-25 12:45:00,
2013-07-25 08:12:00,67.0,58.0,-100.00,SW,225,4.0,7.0,73,0.00,,,0.00,223.000000,,2013-07-25 13:12:00,
2013-07-25 08:22:00,67.0,58.0,-100.00,SW,225,4.0,7.0,73,0.00,,,0.00,223.000000,,2013-07-25 13:22:00,
2013-07-25 08:33:00,67.0,58.0,-100.00,SW,225,4.0,7.0,73,0.00,,,0.00,223.000000,,2013-07-25 13:33:00,
2013-07-25 08:43:00,67.0,58.0,-100.00,SW,225,4.0,7.0,73,0.00,,,0.00,223.000000,,2013-07-25 13:43:00,
2013-07-25 08:52:00,67.0,58.0,-100.00,SW,225,4.0,7.0,73,0.00,,,0.00,223.000000,,2013-07-25 13:52:00,
2013-07-25 08:53:00,71.0,59.0,-100.00,SW,225,5.0,8.0,66,0.00,,,0.00,422.000000,,2013-07-25 13:53:00,
2013-07-25 09:12:00,71.0,59.0,-100.00,SW,225,5.0,8.0,66,0.00,,,0.00,422.000000,,2013-07-25 14:12:00,
2013-07-25 09:22:00,71.0,59.0,-100.00,SW,225,5.0,8.0,66,0.00,,,0.00,422.000000,,2013-07-25 14:22:00,
2013-07-25 09:33:00,71.0,59.0,-100.00,SW,225,5.0,8.0,66,0.00,,,0.00,422.000000,,2013-07-25 14:33:00,
2013-07-25 09:43:00,71.0,59.0,-100.00,SW,225,5.0,8.0,66,0.00,,,0.00,422.000000,,2013-07-25 14:43:00,
2013-07-25 10:22:00,74.0,59.0,-100.00,WSW,248,4.0,10.0,59,0.00,,,0.00,589.000000,,2013-07-25 15:22:00,
2013-07-25 10:32:00,74.0,59.0,-100.00,WSW,248,4.0,10.0,59,0.00,,,0.00,589.000000,,2013-07-25 15:32:00,
2013-07-25 10:44:00,74.0,59.0,-100.00,WSW,248,4.0,10.0,59,0.00,,,0.00,589.000000,,2013-07-25 15:44:00,
2013-07-25 10:52:00,74.0,59.0,-100.00,WSW,248,4.0,10.0,59,0.00,,,0.00,589.000000,,2013-07-25 15:52:00,
2013-07-25 10:53:00,76.0,58.0,-100.00,SW,232,6.0,13.0,53,0.00,,,0.00,784.000000,,2013-07-25 15:53:00,
2013-07-25 11:22:00,76.0,58.0,-100.00,SW,232,6.0,13.0,53,0.00,,,0.00,784.000000,,2013-07-25 16:22:00,
2013-07-25 11:33:00,76.0,58.0,-100.00,SW,232,6.0,13.0,53,0.00,,,0.00,784.000000,,2013-07-25 16:33:00,
2013-07-25 11:45:00,76.0,58.0,-100.00,SW,232,6.0,13.0,53,0.00,,,0.00,784.000000,,2013-07-25 16:45:00,
2013-07-25 11:53:00,78.0,57.0,-100.00,WSW,240,9.0,18.0,48,0.00,,,0.00,894.000000,,2013-07-25 16:53:00,
2013-07-25 12:12:00,78.0,57.0,-100.00,WSW,240,9.0,18.0,48,0.00,,,0.00,894.000000,,2013-07-25 17:12:00,
2013-07-25 12:22:00,78.0,57.0,-100.00,WSW,240,9.0,18.0,48,0.00,,,0.00,894.000000,,2013-07-25 17:22:00,
2013-07-25 12:32:00,78.0,57.0,-100.00,WSW,240,9.0,18.0,48,0.00,,,0.00,894.000000,,2013-07-25 17:32:00,
2013-07-25 12:43:00,78.0,57.0,-100.00,WSW,240,9.0,18.0,48,0.00,,,0.00,894.000000,,2013-07-25 17:43:00,
2013-07-25 13:12:00,79.0,58.0,-100.00,SW,233,7.0,14.0,49,0.00,,,0.00,996.000000,,2013-07-25 18:12:00,
2013-07-25 13:22:00,79.0,58.0,-100.00,SW,233,7.0,14.0,49,0.00,,,0.00,996.000000,,2013-07-25 18:22:00,
2013-07-25 13:33:00,79.0,58.0,-100.00,SW,233,7.0,14.0,49,0.00,,,0.00,996.000000,,2013-07-25 18:33:00,
2013-07-25 13:43:00,79.0,58.0,-100.00,SW,233,7.0,14.0,49,0.00,,,0.00,996.000000,,2013-07-25 18:43:00,
2013-07-25 13:52:00,79.0,58.0,-100.00,SW,233,7.0,14.0,49,0.00,,,0.00,996.000000,,2013-07-25 18:52:00,
2013-07-25 14:12:00,80.0,57.0,-100.00,West,260,7.0,15.0,45,0.00,,,0.00,1017.000000,,2013-07-25 19:12:00,
2013-07-25 14:22:00,80.0,57.0,-100.00,West,260,7.0,15.0,45,0.00,,,0.00,1017.000000,,2013-07-25 19:22:00,
2013-07-25 14:33:00,80.0,57.0,-100.00,West,260,7.0,15.0,45,0.00,,,0.00,1017.000000,,2013-07-25 19:33:00,
2013-07-25 14:43:00,80.0,57.0,-100.00,West,260,7.0,15.0,45,0.00,,,0.00,1017.000000,,2013-07-25 19:43:00,
2013-07-25 14:52:00,80.0,57.0,-100.00,West,260,7.0,15.0,45,0.00,,,0.00,1017.000000,,2013-07-25 19:52:00,
2013-07-25 14:53:00,81.0,58.0,-100.00,WSW,242,5.0,12.0,46,0.00,,,0.00,964.000000,,2013-07-25 19:53:00,
2013-07-25 15:12:00,81.0,58.0,-100.00,WSW,242,5.0,12.0,46,0.00,,,0.00,964.000000,,2013-07-25 20:12:00,
2013-07-25 15:22:00,81.0,58.0,-100.00,WSW,242,5.0,12.0,46,0.00,,,0.00,964.000000,,2013-07-25 20:22:00,
2013-07-25 15:32:00,81.0,58.0,-100.00,WSW,242,5.0,12.0,46,0.00,,,0.00,964.000000,,2013-07-25 20:32:00,
2013-07-25 15:43:00,81.0,58.0,-100.00,WSW,242,5.0,12.0,46,0.00,,,0.00,964.000000,,2013-07-25 20:43:00,
2013-07-25 16:12:00,82.0,59.0,-100.00,WSW,258,5.0,11.0,45,0.00,,,0.00,769.000000,,2013-07-25 21:12:00,
2013-07-25 16:22:00,82.0,59.0,-100.00,WSW,258,5.0,11.0,45,0.00,,,0.00,769.000000,,2013-07-25 21:22:00,
2013-07-25 16:32:00,82.0,59.0,-100.00,WSW,258,5.0,11.0,45,0.00,,,0.00,769.000000,,2013-07-25 21:32:00,
2013-07-25 16:44:00,82.0,59.0,-100.00,WSW,258,5.0,11.0,45,0.00,,,0.00,769.000000,,2013-07-25 21:44:00,
2013-07-25 16:52:00,82.0,59.0,-100.00,WSW,258,5.0,11.0,45,0.00,,,0.00,769.000000,,2013-07-25 21:52:00,
2013-07-25 17:12:00,81.0,59.0,-100.00,West,265,1.0,7.0,47,0.00,,,0.00,372.000000,,2013-07-25 22:12:00,
2013-07-25 17:22:00,81.0,59.0,-100.00,West,265,1.0,7.0,47,0.00,,,0.00,372.000000,,2013-07-25 22:22:00,
2013-07-25 17:32:00,81.0,59.0,-100.00,West,265,1.0,7.0,47,0.00,,,0.00,372.000000,,2013-07-25 22:32:00,
2013-07-25 17:43:00,81.0,59.0,-100.00,West,265,1.0,7.0,47,0.00,,,0.00,372.000000,,2013-07-25 22:43:00,
2013-07-25 17:52:00,81.0,59.0,-100.00,West,265,1.0,7.0,47,0.00,,,0.00,372.000000,,2013-07-25 22:52:00,
2013-07-25 18:12:00,81.0,58.0,-100.00,NNW,329,2.0,5.0,46,0.00,,,0.00,395.000000,,2013-07-25 23:12:00,
2013-07-25 18:22:00,81.0,58.0,-100.00,NNW,329,2.0,5.0,46,0.00,,,0.00,395.000000,,2013-07-25 23:22:00,
2013-07-25 18:32:00,81.0,58.0,-100.00,NNW,329,2.0,5.0,46,0.00,,,0.00,395.000000,,2013-07-25 23:32:00,
2013-07-25 18:43:00,81.0,58.0,-100.00,NNW,329,2.0,5.0,46,0.00,,,0.00,395.000000,,2013-07-25 23:43:00,
2013-07-25 18:52:00,81.0,58.0,-100.00,NNW,329,2.0,5.0,46,0.00,,,0.00,395.000000,,2013-07-25 23:52:00,
2013-07-25 19:12:00,79.0,64.0,-100.00,NNE,29,5.0,8.0,60,0.00,,,0.00,268.000000,,2013-07-26 00:12:00,
2013-07-25 19:22:00,79.0,64.0,-100.00,NNE,29,5.0,8.0,60,0.00,,,0.00,268.000000,,2013-07-26 00:22:00,
2013-07-25 19:33:00,79.0,64.0,-100.00,NNE,29,5.0,8.0,60,0.00,,,0.00,268.000000,,2013-07-26 00:33:00,
2013-07-25 19:43:00,79.0,64.0,-100.00,NNE,29,5.0,8.0,60,0.00,,,0.00,268.000000,,2013-07-26 00:43:00,
2013-07-25 19:52:00,79.0,64.0,-100.00,NNE,29,5.0,8.0,60,0.00,,,0.00,268.000000,,2013-07-26 00:52:00,
2013-07-25 20:12:00,76.0,65.0,-100.00,NE,42,3.0,5.0,69,0.00,,,0.00,89.000000,,2013-07-26 01:12:00,
2013-07-25 20:22:00,76.0,65.0,-100.00,NE,42,3.0,5.0,69,0.00,,,0.00,89.000000,,2013-07-26 01:22:00,
2013-07-25 20:32:00,76.0,65.0,-100.00,NE,42,3.0,5.0,69,0.00,,,0.00,89.000000,,2013-07-26 01:32:00,
2013-07-25 20:43:00,76.0,65.0,-100.00,NE,42,3.0,5.0,69,0.00,,,0.00,89.000000,,2013-07-26 01:43:00,
2013-07-25 20:52:00,76.0,65.0,-100.00,NE,42,3.0,5.0,69,0.00,,,0.00,89.000000,,2013-07-26 01:52:00,
2013-07-25 21:53:00,68.0,65.0,-100.00,South,181,0.0,0.0,91,0.00,,,0.00,1.000000,,2013-07-26 02:53:00,
2013-07-25 22:12:00,68.0,65.0,-100.00,South,181,0.0,0.0,91,0.00,,,0.00,1.000000,,2013-07-26 03:12:00,
2013-07-25 22:22:00,68.0,65.0,-100.00,South,181,0.0,0.0,91,0.00,,,0.00,1.000000,,2013-07-26 03:22:00,
2013-07-25 22:32:00,68.0,65.0,-100.00,South,181,0.0,0.0,91,0.00,,,0.00,1.000000,,2013-07-26 03:32:00,
2013-07-25 22:43:00,68.0,65.0,-100.00,South,181,0.0,0.0,91,0.00,,,0.00,1.000000,,2013-07-26 03:43:00,
2013-07-25 22:53:00,66.0,65.0,-100.00,SSW,213,0.0,1.0,95,0.00,,,0.00,1.000000,,2013-07-26 03:53:00,
2013-07-25 23:12:00,66.0,65.0,-100.00,SSW,213,0.0,1.0,95,0.00,,,0.00,1.000000,,2013-07-26 04:12:00,
2013-07-25 23:22:00,66.0,65.0,-100.00,SSW,213,0.0,1.0,95,0.00,,,0.00,1.000000,,2013-07-26 04:22:00,
2013-07-25 23:32:00,66.0,65.0,-100.00,SSW,213,0.0,1.0,95,0.00,,,0.00,1.000000,,2013-07-26 04:32:00,
2013-07-25 23:42:00,66.0,65.0,-100.00,SSW,213,0.0,1.0,95,0.00,,,0.00,1.000000,,2013-07-26 04:42:00,